ACA1EN PAFA-EDDM
Flight info
| Callsign | ACA1EN |
|---|---|
| Flight time | N/A |
| Altitude | 37000 |
| Route | DRRLL4 DRRLL DCT ROCES DCT TAYTA DCT 72N140W 77N130W 80N120W 82N110W DCT LT/M085F390 DCT 80N030W 78N020W 75N010W 68N000E/N0494F390 DCT UMBOR/N0490F410 DCT RASVI/N0484F400 M609 RERPA/N0485F410 P614 EPILO/N0485F400 P601 BAVTA/N0483F410 DCT GIKOG DCT KEGAB/N0481F400 DCT BOMBI/N0483F410 T104 ELMOX DCT |
| Aircraft | B789/H-SDE1E2E3FGHIJ2J3J4J5M1RWXY/LB1D1 |
Departure
| Time | 2026-04-17 13:05 |
|---|---|
| Airport | Fairbanks International Airport (PAFA) |
Arrival
| Time | N/A |
|---|---|
| Airport | Munich Airport (EDDM) |
| Time | Latitude | Longitude | Altitude | Speed | Heading |
|---|---|---|---|---|---|
| 2026-04-17 12:51 | 64.81655 | -147.86954 | 450 ft | 0 kts | 41° |
| 2026-04-17 12:57 | 64.81648 | -147.86969 | 450 ft | 2 kts | 39° |
| 2026-04-17 12:57 | 64.81628 | -147.87007 | 448 ft | 4 kts | 37° |
| 2026-04-17 12:57 | 64.81604 | -147.87050 | 449 ft | 4 kts | 37° |
| 2026-04-17 12:57 | 64.81581 | -147.87093 | 449 ft | 4 kts | 40° |
| 2026-04-17 12:58 | 64.81556 | -147.87140 | 448 ft | 4 kts | 38° |
| 2026-04-17 12:58 | 64.81539 | -147.87171 | 448 ft | 0 kts | 38° |
| 2026-04-17 12:59 | 64.81540 | -147.87167 | 448 ft | 0 kts | 49° |
| 2026-04-17 12:59 | 64.81548 | -147.87137 | 449 ft | 6 kts | 61° |
| 2026-04-17 13:00 | 64.81560 | -147.86980 | 445 ft | 12 kts | 96° |
| 2026-04-17 13:00 | 64.81524 | -147.86829 | 452 ft | 11 kts | 128° |
| 2026-04-17 13:00 | 64.81470 | -147.86745 | 451 ft | 9 kts | 177° |
| 2026-04-17 13:00 | 64.81416 | -147.86803 | 451 ft | 9 kts | 217° |
| 2026-04-17 13:01 | 64.81360 | -147.86903 | 451 ft | 11 kts | 217° |
| 2026-04-17 13:01 | 64.81294 | -147.87020 | 451 ft | 13 kts | 217° |
| 2026-04-17 13:01 | 64.81245 | -147.87111 | 451 ft | 14 kts | 218° |
| 2026-04-17 13:01 | 64.81166 | -147.87258 | 451 ft | 16 kts | 218° |
| 2026-04-17 13:02 | 64.81076 | -147.87431 | 451 ft | 18 kts | 218° |
| 2026-04-17 13:02 | 64.80974 | -147.87617 | 451 ft | 19 kts | 217° |
| 2026-04-17 13:02 | 64.80863 | -147.87817 | 451 ft | 21 kts | 218° |
| 2026-04-17 13:02 | 64.80744 | -147.88034 | 451 ft | 22 kts | 218° |
| 2026-04-17 13:03 | 64.80619 | -147.88264 | 450 ft | 24 kts | 218° |
| 2026-04-17 13:03 | 64.80507 | -147.88406 | 450 ft | 13 kts | 166° |
| 2026-04-17 13:03 | 64.80467 | -147.88268 | 448 ft | 7 kts | 71° |
| 2026-04-17 13:03 | 64.80499 | -147.88156 | 448 ft | 9 kts | 45° |
| 2026-04-17 13:04 | 64.80518 | -147.88118 | 448 ft | 0 kts | 38° |
| 2026-04-17 13:04 | 64.80549 | -147.88062 | 449 ft | 18 kts | 38° |
| 2026-04-17 13:04 | 64.80808 | -147.87587 | 450 ft | 77 kts | 38° |
| 2026-04-17 13:05 | 64.81387 | -147.86530 | 451 ft | 131 kts | 38° |
| 2026-04-17 13:05 | 64.82241 | -147.84981 | 460 ft | 177 kts | 37° |
| 2026-04-17 13:05 | 64.83214 | -147.83186 | 934 ft | 178 kts | 40° |
| 2026-04-17 13:05 | 64.84319 | -147.81778 | 1265 ft | 184 kts | 17° |
| 2026-04-17 13:06 | 64.85617 | -147.81673 | 1709 ft | 194 kts | 351° |
| 2026-04-17 13:06 | 64.87009 | -147.82371 | 1991 ft | 216 kts | 346° |
| 2026-04-17 13:06 | 64.88488 | -147.83821 | 2195 ft | 245 kts | 330° |
| 2026-04-17 13:06 | 64.89934 | -147.86049 | 2895 ft | 251 kts | 325° |
| 2026-04-17 13:07 | 64.91404 | -147.88360 | 3673 ft | 256 kts | 326° |
| 2026-04-17 13:07 | 64.92928 | -147.90596 | 4458 ft | 260 kts | 327° |
| 2026-04-17 13:07 | 64.94479 | -147.92845 | 5233 ft | 263 kts | 326° |
| 2026-04-17 13:07 | 64.96061 | -147.95026 | 6011 ft | 267 kts | 335° |
| 2026-04-17 13:08 | 64.97845 | -147.96333 | 6685 ft | 271 kts | 339° |
| 2026-04-17 13:08 | 64.99621 | -147.97952 | 7386 ft | 273 kts | 336° |
| 2026-04-17 13:08 | 65.01400 | -147.99572 | 8086 ft | 277 kts | 338° |
| 2026-04-17 13:08 | 65.03231 | -148.01115 | 8775 ft | 281 kts | 338° |
| 2026-04-17 13:09 | 65.05068 | -148.02648 | 9454 ft | 283 kts | 338° |
| 2026-04-17 13:09 | 65.06928 | -148.04237 | 10111 ft | 287 kts | 338° |
| 2026-04-17 13:09 | 65.08873 | -148.05915 | 10276 ft | 309 kts | 338° |
| 2026-04-17 13:09 | 65.10980 | -148.07727 | 10335 ft | 334 kts | 338° |
| 2026-04-17 13:10 | 65.13222 | -148.09645 | 10427 ft | 356 kts | 338° |
| 2026-04-17 13:10 | 65.15620 | -148.11700 | 10782 ft | 367 kts | 338° |
| 2026-04-17 13:10 | 65.18018 | -148.13762 | 11508 ft | 368 kts | 338° |
| 2026-04-17 13:10 | 65.20447 | -148.15832 | 12102 ft | 372 kts | 338° |
| 2026-04-17 13:11 | 65.22910 | -148.17811 | 12750 ft | 375 kts | 339° |
| 2026-04-17 13:11 | 65.25394 | -148.19803 | 13391 ft | 378 kts | 338° |
| 2026-04-17 13:11 | 65.27890 | -148.21865 | 13972 ft | 381 kts | 338° |
| 2026-04-17 13:11 | 65.30399 | -148.23954 | 14534 ft | 383 kts | 338° |
| 2026-04-17 13:12 | 65.32934 | -148.26045 | 15088 ft | 386 kts | 338° |
| 2026-04-17 13:12 | 65.38281 | -148.27970 | 16061 ft | 401 kts | 5° |
| 2026-04-17 13:12 | 65.41016 | -148.26341 | 16527 ft | 408 kts | 14° |
| 2026-04-17 13:13 | 65.43751 | -148.24420 | 16991 ft | 411 kts | 13° |
| 2026-04-17 13:13 | 65.46501 | -148.22472 | 17487 ft | 414 kts | 14° |
| 2026-04-17 13:13 | 65.49248 | -148.20517 | 17947 ft | 417 kts | 13° |
| 2026-04-17 13:13 | 65.52082 | -148.18505 | 18404 ft | 420 kts | 13° |
| 2026-04-17 13:14 | 65.54892 | -148.16507 | 18801 ft | 423 kts | 13° |
| 2026-04-17 13:14 | 65.57728 | -148.14483 | 19209 ft | 426 kts | 13° |
| 2026-04-17 13:14 | 65.60583 | -148.12440 | 19597 ft | 429 kts | 13° |
| 2026-04-17 13:14 | 65.63401 | -148.10419 | 19998 ft | 431 kts | 13° |
| 2026-04-17 13:15 | 65.66296 | -148.08340 | 20370 ft | 434 kts | 13° |
| 2026-04-17 13:15 | 65.69199 | -148.06249 | 20762 ft | 436 kts | 13° |
| 2026-04-17 13:15 | 65.72112 | -148.04146 | 21135 ft | 439 kts | 14° |
| 2026-04-17 13:15 | 65.75051 | -148.02019 | 21508 ft | 441 kts | 14° |
| 2026-04-17 13:16 | 65.77996 | -147.99883 | 21871 ft | 443 kts | 14° |
| 2026-04-17 13:16 | 65.80955 | -147.97733 | 22222 ft | 445 kts | 14° |
| 2026-04-17 13:16 | 65.83935 | -147.95560 | 22570 ft | 448 kts | 14° |
| 2026-04-17 13:16 | 65.86925 | -147.93375 | 22922 ft | 450 kts | 14° |
| 2026-04-17 13:17 | 65.89925 | -147.91178 | 23246 ft | 452 kts | 14° |
| 2026-04-17 13:17 | 65.92952 | -147.88956 | 23564 ft | 454 kts | 14° |
| 2026-04-17 13:17 | 65.95984 | -147.86724 | 23830 ft | 456 kts | 14° |
| 2026-04-17 13:17 | 65.99041 | -147.84469 | 24090 ft | 458 kts | 14° |
| 2026-04-17 13:18 | 66.02090 | -147.82213 | 24339 ft | 460 kts | 14° |
| 2026-04-17 13:18 | 66.05128 | -147.79960 | 24587 ft | 462 kts | 14° |
| 2026-04-17 13:18 | 66.08250 | -147.77639 | 24852 ft | 463 kts | 14° |
| 2026-04-17 13:18 | 66.11340 | -147.75337 | 25091 ft | 465 kts | 14° |
| 2026-04-17 13:19 | 66.14404 | -147.73048 | 25327 ft | 467 kts | 14° |
| 2026-04-17 13:19 | 66.17523 | -147.70711 | 25566 ft | 469 kts | 14° |
| 2026-04-17 13:19 | 66.20648 | -147.68364 | 25809 ft | 471 kts | 14° |
| 2026-04-17 13:19 | 66.23792 | -147.65996 | 26028 ft | 473 kts | 14° |
| 2026-04-17 13:20 | 66.26947 | -147.63614 | 26283 ft | 474 kts | 14° |
| 2026-04-17 13:20 | 66.30115 | -147.61216 | 26522 ft | 476 kts | 14° |
| 2026-04-17 13:20 | 66.33301 | -147.58799 | 26733 ft | 478 kts | 14° |
| 2026-04-17 13:20 | 66.36483 | -147.56377 | 26979 ft | 480 kts | 14° |
| 2026-04-17 13:21 | 66.39685 | -147.53934 | 27210 ft | 481 kts | 14° |
| 2026-04-17 13:21 | 66.42895 | -147.51478 | 27440 ft | 483 kts | 14° |
| 2026-04-17 13:21 | 66.46111 | -147.49011 | 27664 ft | 485 kts | 14° |
| 2026-04-17 13:21 | 66.49348 | -147.46521 | 27888 ft | 486 kts | 14° |
| 2026-04-17 13:22 | 66.52590 | -147.44020 | 28105 ft | 488 kts | 14° |
| 2026-04-17 13:22 | 66.55801 | -147.41537 | 28325 ft | 490 kts | 14° |
| 2026-04-17 13:22 | 66.59071 | -147.39002 | 28535 ft | 491 kts | 14° |
| 2026-04-17 13:22 | 66.62334 | -147.36464 | 28747 ft | 493 kts | 14° |
| 2026-04-17 13:23 | 66.65618 | -147.33903 | 28960 ft | 494 kts | 14° |
| 2026-04-17 13:23 | 66.68910 | -147.31328 | 29140 ft | 496 kts | 14° |
| 2026-04-17 13:23 | 66.72211 | -147.28740 | 29371 ft | 497 kts | 14° |
| 2026-04-17 13:23 | 66.75523 | -147.26135 | 29560 ft | 499 kts | 14° |
| 2026-04-17 13:24 | 66.78836 | -147.23522 | 29772 ft | 500 kts | 14° |
| 2026-04-17 13:24 | 66.82173 | -147.20883 | 29958 ft | 502 kts | 15° |
| 2026-04-17 13:24 | 66.85508 | -147.18239 | 30148 ft | 503 kts | 15° |
| 2026-04-17 13:24 | 66.88852 | -147.15579 | 30292 ft | 504 kts | 15° |
| 2026-04-17 13:25 | 66.92204 | -147.12905 | 30452 ft | 506 kts | 15° |
| 2026-04-17 13:25 | 66.95571 | -147.10211 | 30603 ft | 507 kts | 15° |
| 2026-04-17 13:25 | 66.98940 | -147.07508 | 30784 ft | 508 kts | 15° |
| 2026-04-17 13:25 | 67.02312 | -147.04796 | 30995 ft | 508 kts | 15° |
| 2026-04-17 13:26 | 67.05683 | -147.02074 | 31200 ft | 508 kts | 15° |
| 2026-04-17 13:26 | 67.09015 | -146.99378 | 31411 ft | 508 kts | 15° |
| 2026-04-17 13:26 | 67.12387 | -146.96641 | 31637 ft | 508 kts | 15° |
| 2026-04-17 13:26 | 67.15800 | -146.93862 | 31861 ft | 508 kts | 15° |
| 2026-04-17 13:27 | 67.19133 | -146.91141 | 32050 ft | 509 kts | 15° |
| 2026-04-17 13:27 | 67.22516 | -146.88371 | 32271 ft | 509 kts | 15° |
| 2026-04-17 13:27 | 67.25896 | -146.85595 | 32495 ft | 508 kts | 15° |
| 2026-04-17 13:27 | 67.29264 | -146.82820 | 32719 ft | 508 kts | 15° |
| 2026-04-17 13:28 | 67.32640 | -146.80031 | 32929 ft | 508 kts | 15° |
| 2026-04-17 13:28 | 67.36013 | -146.77237 | 33133 ft | 509 kts | 15° |
| 2026-04-17 13:28 | 67.39342 | -146.74470 | 33346 ft | 509 kts | 15° |
| 2026-04-17 13:28 | 67.42754 | -146.71626 | 33550 ft | 509 kts | 15° |
| 2026-04-17 13:29 | 67.46125 | -146.68808 | 33773 ft | 509 kts | 15° |
| 2026-04-17 13:29 | 67.49456 | -146.66015 | 33983 ft | 509 kts | 15° |
| 2026-04-17 13:29 | 67.52827 | -146.63180 | 34168 ft | 508 kts | 15° |
| 2026-04-17 13:29 | 67.56197 | -146.60338 | 34340 ft | 508 kts | 15° |
| 2026-04-17 13:30 | 67.59565 | -146.57488 | 34518 ft | 508 kts | 15° |
| 2026-04-17 13:30 | 67.62943 | -146.54622 | 34689 ft | 508 kts | 15° |
| 2026-04-17 13:30 | 67.66312 | -146.51754 | 34863 ft | 508 kts | 15° |
| 2026-04-17 13:30 | 67.69683 | -146.48876 | 35030 ft | 508 kts | 15° |
| 2026-04-17 13:31 | 67.73005 | -146.46031 | 35210 ft | 508 kts | 15° |
| 2026-04-17 13:31 | 67.76399 | -146.43116 | 35352 ft | 508 kts | 15° |
| 2026-04-17 13:31 | 67.79723 | -146.40253 | 35512 ft | 508 kts | 15° |
| 2026-04-17 13:31 | 67.83079 | -146.37353 | 35670 ft | 508 kts | 15° |
| 2026-04-17 13:32 | 67.86479 | -146.34406 | 35840 ft | 508 kts | 15° |
| 2026-04-17 13:32 | 67.89787 | -146.31530 | 35978 ft | 508 kts | 15° |
| 2026-04-17 13:32 | 67.93147 | -146.28601 | 36113 ft | 508 kts | 15° |
| 2026-04-17 13:32 | 67.96506 | -146.25662 | 36247 ft | 508 kts | 15° |
| 2026-04-17 13:33 | 67.99861 | -146.22719 | 36386 ft | 507 kts | 15° |
| 2026-04-17 13:33 | 68.03221 | -146.19763 | 36515 ft | 507 kts | 15° |
| 2026-04-17 13:33 | 68.06575 | -146.16802 | 36635 ft | 507 kts | 15° |
| 2026-04-17 13:33 | 68.09927 | -146.13834 | 36768 ft | 507 kts | 15° |
| 2026-04-17 13:34 | 68.13280 | -146.10856 | 36922 ft | 507 kts | 15° |
| 2026-04-17 13:34 | 68.16637 | -146.07867 | 36958 ft | 509 kts | 15° |
| 2026-04-17 13:34 | 68.19992 | -146.04869 | 37064 ft | 506 kts | 15° |
| 2026-04-17 13:34 | 68.23353 | -146.01857 | 36938 ft | 508 kts | 15° |
| 2026-04-17 13:35 | 68.29993 | -145.95870 | 36970 ft | 506 kts | 15° |
| 2026-04-17 13:35 | 68.36681 | -145.89820 | 37008 ft | 507 kts | 15° |
| 2026-04-17 13:36 | 68.43356 | -145.83726 | 37052 ft | 505 kts | 15° |
| 2026-04-17 13:36 | 68.50021 | -145.77618 | 37078 ft | 505 kts | 15° |
| 2026-04-17 13:37 | 68.56681 | -145.71467 | 37078 ft | 505 kts | 15° |
| 2026-04-17 13:37 | 68.63351 | -145.65272 | 37082 ft | 506 kts | 16° |
| 2026-04-17 13:38 | 68.70010 | -145.59045 | 37089 ft | 506 kts | 16° |
| 2026-04-17 13:38 | 68.76672 | -145.52778 | 37088 ft | 505 kts | 16° |
| 2026-04-17 13:39 | 68.83276 | -145.46527 | 37093 ft | 505 kts | 16° |
| 2026-04-17 13:39 | 68.89920 | -145.40196 | 37089 ft | 504 kts | 16° |
| 2026-04-17 13:40 | 68.96560 | -145.33830 | 37091 ft | 504 kts | 16° |
| 2026-04-17 13:40 | 69.03187 | -145.27436 | 37086 ft | 503 kts | 16° |
| 2026-04-17 13:41 | 69.09809 | -145.21005 | 37108 ft | 504 kts | 16° |
| 2026-04-17 13:41 | 69.16439 | -145.14524 | 37101 ft | 504 kts | 16° |
| 2026-04-17 13:42 | 69.23014 | -145.08057 | 37108 ft | 503 kts | 16° |
| 2026-04-17 13:42 | 69.29631 | -145.01507 | 37125 ft | 504 kts | 16° |
| 2026-04-17 13:43 | 69.36259 | -144.94902 | 37135 ft | 504 kts | 17° |
| 2026-04-17 13:43 | 69.42872 | -144.88269 | 37152 ft | 504 kts | 17° |
| 2026-04-17 13:44 | 69.49479 | -144.81598 | 37172 ft | 503 kts | 17° |
| 2026-04-17 13:44 | 69.56076 | -144.74895 | 37187 ft | 503 kts | 17° |
| 2026-04-17 13:45 | 69.62653 | -144.68168 | 37205 ft | 504 kts | 17° |
| 2026-04-17 13:45 | 69.69283 | -144.61341 | 37220 ft | 506 kts | 17° |
| 2026-04-17 13:46 | 69.75877 | -144.54505 | 37229 ft | 505 kts | 17° |
| 2026-04-17 13:46 | 69.82483 | -144.47612 | 37236 ft | 504 kts | 17° |
| 2026-04-17 13:47 | 69.89073 | -144.40690 | 37246 ft | 503 kts | 17° |
| 2026-04-17 13:47 | 69.94550 | -144.34902 | 37248 ft | 503 kts | 17° |
| 2026-04-17 13:48 | 70.01149 | -144.27884 | 37253 ft | 504 kts | 17° |
| 2026-04-17 13:48 | 70.07750 | -144.20818 | 37254 ft | 504 kts | 17° |
| 2026-04-17 13:49 | 70.14241 | -144.13372 | 37275 ft | 507 kts | 27° |
| 2026-04-17 13:49 | 70.20162 | -144.01880 | 37255 ft | 511 kts | 32° |
| 2026-04-17 13:50 | 70.25999 | -143.89909 | 37250 ft | 510 kts | 32° |
| 2026-04-17 13:50 | 70.31845 | -143.77908 | 37249 ft | 511 kts | 32° |
| 2026-04-17 13:51 | 70.37673 | -143.65812 | 37255 ft | 511 kts | 32° |
| 2026-04-17 13:51 | 70.43498 | -143.53663 | 37257 ft | 510 kts | 32° |
| 2026-04-17 13:52 | 70.49290 | -143.41483 | 37263 ft | 509 kts | 33° |
| 2026-04-17 13:52 | 70.55052 | -143.29289 | 37258 ft | 510 kts | 33° |
| 2026-04-17 13:53 | 70.60834 | -143.16957 | 37258 ft | 510 kts | 33° |
| 2026-04-17 13:53 | 70.66620 | -143.04532 | 37258 ft | 509 kts | 33° |
| 2026-04-17 13:54 | 70.75232 | -142.85871 | 37253 ft | 508 kts | 33° |
| 2026-04-17 13:55 | 70.83861 | -142.66968 | 37263 ft | 509 kts | 33° |
| 2026-04-17 13:56 | 70.95279 | -142.41635 | 37261 ft | 508 kts | 34° |
| 2026-04-17 13:56 | 71.00986 | -142.28833 | 37262 ft | 507 kts | 34° |
| 2026-04-17 13:57 | 71.06689 | -142.15947 | 37252 ft | 508 kts | 34° |
| 2026-04-17 13:58 | 71.15213 | -141.96509 | 37257 ft | 508 kts | 34° |
| 2026-04-17 13:58 | 71.23692 | -141.76957 | 37262 ft | 508 kts | 34° |
| 2026-04-17 13:59 | 71.32193 | -141.57135 | 37258 ft | 510 kts | 35° |
| 2026-04-17 14:00 | 71.37855 | -141.43808 | 37263 ft | 509 kts | 35° |
| 2026-04-17 14:00 | 71.43497 | -141.30428 | 37263 ft | 509 kts | 35° |
| 2026-04-17 14:01 | 71.49140 | -141.16945 | 37264 ft | 509 kts | 35° |
| 2026-04-17 14:01 | 71.54770 | -141.03392 | 37262 ft | 508 kts | 35° |
| 2026-04-17 14:02 | 71.60510 | -140.90468 | 37260 ft | 506 kts | 33° |
| 2026-04-17 14:02 | 71.66248 | -140.77459 | 37263 ft | 506 kts | 33° |
| 2026-04-17 14:03 | 71.71961 | -140.64686 | 37257 ft | 506 kts | 33° |
| 2026-04-17 14:03 | 71.77683 | -140.51632 | 37262 ft | 506 kts | 33° |
| 2026-04-17 14:04 | 71.83423 | -140.38529 | 37260 ft | 506 kts | 34° |
| 2026-04-17 14:04 | 71.89145 | -140.25320 | 37260 ft | 507 kts | 34° |
| 2026-04-17 14:05 | 71.94866 | -140.12033 | 37261 ft | 507 kts | 34° |
| 2026-04-17 14:05 | 72.00683 | -139.99199 | 37277 ft | 503 kts | 23° |
| 2026-04-17 14:06 | 72.07075 | -139.90034 | 37258 ft | 503 kts | 21° |
| 2026-04-17 14:06 | 72.13498 | -139.81011 | 37262 ft | 502 kts | 22° |
| 2026-04-17 14:07 | 72.19864 | -139.71886 | 37261 ft | 501 kts | 22° |
| 2026-04-17 14:07 | 72.26249 | -139.62741 | 37259 ft | 501 kts | 22° |
| 2026-04-17 14:08 | 72.32635 | -139.53478 | 37264 ft | 501 kts | 22° |
| 2026-04-17 14:08 | 72.39016 | -139.44177 | 37264 ft | 502 kts | 22° |
| 2026-04-17 14:09 | 72.45414 | -139.34764 | 37256 ft | 503 kts | 22° |
| 2026-04-17 14:09 | 72.51807 | -139.25293 | 37257 ft | 502 kts | 22° |
| 2026-04-17 14:10 | 72.58137 | -139.15837 | 37262 ft | 501 kts | 23° |
| 2026-04-17 14:10 | 72.64501 | -139.06261 | 37262 ft | 500 kts | 23° |
| 2026-04-17 14:11 | 72.70836 | -138.96651 | 37261 ft | 500 kts | 23° |
| 2026-04-17 14:11 | 72.77186 | -138.86943 | 37263 ft | 501 kts | 23° |
| 2026-04-17 14:12 | 72.83540 | -138.77153 | 37262 ft | 502 kts | 23° |
| 2026-04-17 14:12 | 72.89853 | -138.67348 | 37258 ft | 502 kts | 23° |
| 2026-04-17 14:13 | 72.99365 | -138.52428 | 37261 ft | 500 kts | 24° |
| 2026-04-17 14:13 | 73.05687 | -138.42411 | 37254 ft | 500 kts | 24° |
| 2026-04-17 14:14 | 73.11953 | -138.32404 | 37259 ft | 500 kts | 24° |
| 2026-04-17 14:14 | 73.18271 | -138.22231 | 37245 ft | 501 kts | 24° |
| 2026-04-17 14:15 | 73.24588 | -138.11978 | 37246 ft | 502 kts | 24° |
| 2026-04-17 14:15 | 73.30898 | -138.01654 | 37249 ft | 500 kts | 24° |
| 2026-04-17 14:16 | 73.37196 | -137.91264 | 37253 ft | 500 kts | 25° |
| 2026-04-17 14:16 | 73.43451 | -137.80862 | 37254 ft | 500 kts | 25° |
| 2026-04-17 14:17 | 73.49737 | -137.70321 | 37261 ft | 501 kts | 25° |
| 2026-04-17 14:17 | 73.56023 | -137.59692 | 37250 ft | 501 kts | 25° |
| 2026-04-17 14:18 | 73.62297 | -137.48995 | 37255 ft | 500 kts | 25° |
| 2026-04-17 14:18 | 73.68556 | -137.38235 | 37250 ft | 498 kts | 25° |
| 2026-04-17 14:19 | 73.74780 | -137.27447 | 37242 ft | 498 kts | 25° |
| 2026-04-17 14:19 | 73.81013 | -137.16553 | 37248 ft | 499 kts | 25° |
| 2026-04-17 14:20 | 73.87258 | -137.05545 | 37248 ft | 501 kts | 26° |
| 2026-04-17 14:20 | 73.93466 | -136.94509 | 37253 ft | 500 kts | 26° |
| 2026-04-17 14:21 | 73.99731 | -136.83277 | 37248 ft | 499 kts | 26° |
| 2026-04-17 14:21 | 74.05905 | -136.72115 | 37251 ft | 499 kts | 26° |
| 2026-04-17 14:22 | 74.12117 | -136.60786 | 37251 ft | 499 kts | 26° |
| 2026-04-17 14:22 | 74.18322 | -136.49375 | 37244 ft | 499 kts | 26° |
| 2026-04-17 14:23 | 74.24517 | -136.37882 | 37243 ft | 498 kts | 26° |
| 2026-04-17 14:23 | 74.30699 | -136.26314 | 37252 ft | 497 kts | 26° |
| 2026-04-17 14:24 | 74.36836 | -136.14732 | 37256 ft | 497 kts | 27° |
| 2026-04-17 14:24 | 74.42995 | -136.03005 | 37243 ft | 497 kts | 27° |
| 2026-04-17 14:25 | 74.49153 | -135.91178 | 37246 ft | 496 kts | 27° |
| 2026-04-17 14:25 | 74.55284 | -135.79299 | 37245 ft | 496 kts | 27° |
| 2026-04-17 14:26 | 74.61401 | -135.67343 | 37248 ft | 495 kts | 27° |
| 2026-04-17 14:26 | 74.67474 | -135.55369 | 37241 ft | 496 kts | 27° |
| 2026-04-17 14:27 | 74.73584 | -135.43215 | 37238 ft | 495 kts | 27° |
| 2026-04-17 14:27 | 74.79684 | -135.30973 | 37249 ft | 495 kts | 27° |
| 2026-04-17 14:28 | 74.85770 | -135.18648 | 37236 ft | 495 kts | 28° |
| 2026-04-17 14:28 | 74.91846 | -135.06234 | 37239 ft | 495 kts | 28° |
| 2026-04-17 14:29 | 74.97914 | -134.93723 | 37242 ft | 495 kts | 28° |
| 2026-04-17 14:29 | 75.03977 | -134.81110 | 37235 ft | 495 kts | 28° |
| 2026-04-17 14:30 | 75.10033 | -134.68396 | 37233 ft | 495 kts | 28° |
| 2026-04-17 14:30 | 75.16034 | -134.55684 | 37236 ft | 494 kts | 28° |
| 2026-04-17 14:31 | 75.22084 | -134.42751 | 37240 ft | 494 kts | 28° |
| 2026-04-17 14:31 | 75.28113 | -134.29742 | 37234 ft | 495 kts | 28° |
| 2026-04-17 14:32 | 75.34119 | -134.16663 | 37230 ft | 495 kts | 29° |
| 2026-04-17 14:32 | 75.40142 | -134.03427 | 37230 ft | 494 kts | 29° |
| 2026-04-17 14:33 | 75.46143 | -133.90114 | 37231 ft | 494 kts | 29° |
| 2026-04-17 14:33 | 75.52143 | -133.76681 | 37228 ft | 494 kts | 29° |
| 2026-04-17 14:34 | 75.58095 | -133.63228 | 37226 ft | 493 kts | 29° |
| 2026-04-17 14:34 | 75.63067 | -133.51896 | 37223 ft | 490 kts | 30° |
| 2026-04-17 14:35 | 75.69946 | -133.36059 | 37210 ft | 491 kts | 30° |
| 2026-04-17 14:35 | 75.72900 | -133.29210 | 37212 ft | 492 kts | 30° |